Time;durP1;ratioP1;P1;durP2;ratioP2;P2;SDS_P1;SDS_P2;PMS_P1;PMS_P2;Temp;Humidity;BMP_temperature;BMP_pressure;BME280_temperature;BME280_humidity;BME280_pressure;Samples;Min_cycle;Max_cycle;Signal;HPM_P1;HPM_P2
2022/03/17 00:00:20;;;;;;;;;;;;;;;21.13;42.25;102074.69;7280906;19;153492;-64
2022/03/17 00:02:47;;;;;;;;;;;;;;;21.12;42.68;102074.97;7278798;19;154378;-64
2022/03/17 00:05:14;;;;;;;;;;;;;;;21.10;42.67;102074.41;7288111;19;152283;-64
2022/03/17 00:07:42;;;;;;;;;;;;;;;21.08;42.73;102080.31;7278462;19;154134;-66
2022/03/17 00:10:10;;;;;;;;;;;;;;;21.06;42.67;102090.16;7281291;19;152218;-65
2022/03/17 00:12:37;;;;;;;;;;;;;;;21.06;42.33;102093.81;7277137;19;153436;-63
2022/03/17 00:15:04;;;;;;;;;;;;;;;21.03;42.77;102091.56;7281247;19;154405;-64
2022/03/17 00:17:31;;;;;;;;;;;;;;;21.00;42.84;102097.75;7279807;19;152121;-65
2022/03/17 00:19:59;;;;;;;;;;;;;;;20.98;42.92;102111.25;7279404;19;153304;-66
2022/03/17 00:22:26;;;;;;;;;;;;;;;20.95;42.95;102114.63;7278681;19;153737;-62
2022/03/17 00:24:54;;;;;;;;;;;;;;;20.95;43.02;102131.47;7281589;19;151933;-62
2022/03/17 00:27:21;;;;;;;;;;;;;;;20.92;42.86;102125.56;7287304;19;152939;-63
2022/03/17 00:29:50;;;;;;;;;;;;;;;20.91;42.64;102138.78;7278833;19;152207;-62
2022/03/17 00:32:18;;;;;;;;;;;;;;;20.86;42.76;102145.25;7278072;19;152949;-65
2022/03/17 00:37:24;;;;;;;;;;;;;;;20.83;43.04;102157.06;7279989;19;151993;-63
2022/03/17 00:39:52;;;;;;;;;;;;;;;20.80;42.93;102146.34;7279119;19;153563;-64
2022/03/17 00:42:20;;;;;;;;;;;;;;;20.77;43.08;102149.75;7278860;19;154013;-61
2022/03/17 00:44:48;;;;;;;;;;;;;;;20.75;43.29;102151.16;7263415;19;152475;-64
2022/03/17 00:47:15;;;;;;;;;;;;;;;20.72;43.20;102149.75;7279209;19;152543;-63
2022/03/17 00:49:42;;;;;;;;;;;;;;;20.79;43.43;102147.50;7282892;19;153390;-63
2022/03/17 00:52:10;;;;;;;;;;;;;;;20.78;43.43;102159.88;7276153;19;152247;-63
2022/03/17 00:54:37;;;;;;;;;;;;;;;20.70;43.58;102177.28;7273418;19;153698;-61
2022/03/17 00:57:05;;;;;;;;;;;;;;;20.68;43.86;102190.75;7276494;19;153339;-60
2022/03/17 00:59:33;;;;;;;;;;;;;;;20.66;43.62;102186.53;7279365;19;155575;-61
2022/03/17 01:02:00;;;;;;;;;;;;;;;20.63;43.79;102182.31;7275494;19;154769;-60
2022/03/17 01:04:27;;;;;;;;;;;;;;;20.61;43.87;102195.81;7276840;19;151933;-61
2022/03/17 01:06:57;;;;;;;;;;;;;;;20.60;44.09;102201.69;7278083;19;153121;-63
2022/03/17 01:09:28;;;;;;;;;;;;;;;20.55;44.11;102202.53;7275065;19;154062;-60
2022/03/17 01:11:55;;;;;;;;;;;;;;;20.53;44.08;102209.56;7283634;19;153637;-61
2022/03/17 01:14:22;;;;;;;;;;;;;;;20.51;44.02;102211.78;7278701;19;154298;-63
2022/03/17 01:16:50;;;;;;;;;;;;;;;20.48;44.24;102224.41;7278670;19;152040;-62
2022/03/17 01:19:19;;;;;;;;;;;;;;;20.48;44.22;102218.81;7278174;19;152671;-64
2022/03/17 01:21:46;;;;;;;;;;;;;;;20.46;44.45;102229.44;7278711;19;154418;-63
2022/03/17 01:24:14;;;;;;;;;;;;;;;20.42;44.20;102225.53;7277746;19;151743;-62
2022/03/17 01:26:41;;;;;;;;;;;;;;;20.42;44.11;102222.72;7278107;19;153083;-63
2022/03/17 01:29:08;;;;;;;;;;;;;;;20.40;44.35;102230.56;7275952;19;153323;-63
2022/03/17 01:31:35;;;;;;;;;;;;;;;20.39;43.93;102238.16;7279302;19;151912;-61
2022/03/17 01:34:03;;;;;;;;;;;;;;;20.39;43.82;102238.16;7283774;19;153385;-63
2022/03/17 01:36:30;;;;;;;;;;;;;;;20.36;43.96;102246.25;7277741;19;152398;-62
2022/03/17 01:38:57;;;;;;;;;;;;;;;20.36;43.84;102243.44;7277177;19;153072;-62
2022/03/17 01:41:25;;;;;;;;;;;;;;;20.32;44.09;102251.59;7278769;19;153511;-62
2022/03/17 01:43:52;;;;;;;;;;;;;;;20.30;44.40;102253.84;7280334;19;152253;-63
2022/03/17 01:46:19;;;;;;;;;;;;;;;20.29;44.18;102271.75;7276527;19;153372;-62
2022/03/17 01:48:46;;;;;;;;;;;;;;;20.28;44.09;102275.69;7276032;19;153183;-63
2022/03/17 01:51:14;;;;;;;;;;;;;;;20.26;44.23;102286.31;7277242;19;153777;-60
2022/03/17 01:53:41;;;;;;;;;;;;;;;20.24;44.38;102282.97;7285856;19;153427;-63
2022/03/17 01:56:08;;;;;;;;;;;;;;;20.23;44.68;102286.88;7279554;19;151775;-61
2022/03/17 01:58:36;;;;;;;;;;;;;;;20.25;44.58;102292.22;7276974;19;153350;-61
2022/03/17 02:01:03;;;;;;;;;;;;;;;20.20;44.75;102303.44;7275833;19;154778;-61
2022/03/17 02:03:30;;;;;;;;;;;;;;;20.21;44.58;102308.78;7278202;19;151913;-63
2022/03/17 02:05:57;;;;;;;;;;;;;;;20.18;44.82;102305.66;7279026;19;153100;-65
2022/03/17 02:08:24;;;;;;;;;;;;;;;20.15;44.54;102318.28;7277421;19;155031;-62
2022/03/17 02:13:29;;;;;;;;;;;;;;;20.14;44.92;102315.75;7274667;19;152984;-59
2022/03/17 02:15:56;;;;;;;;;;;;;;;20.11;44.73;102322.75;7284127;19;153371;-60
2022/03/17 02:18:23;;;;;;;;;;;;;;;20.11;44.93;102325.56;7276995;19;153265;-60
2022/03/17 02:20:50;;;;;;;;;;;;;;;20.08;44.71;102328.88;7273596;19;152721;-60
2022/03/17 02:25:55;;;;;;;;;;;;;;;20.04;45.23;102333.34;7276883;19;153924;-61
2022/03/17 02:28:24;;;;;;;;;;;;;;;20.03;44.94;102339.25;7276892;19;152895;-60
2022/03/17 02:30:51;;;;;;;;;;;;;;;20.01;45.20;102336.72;7276186;19;152276;-59
2022/03/17 02:33:19;;;;;;;;;;;;;;;19.97;44.91;102342.03;7272790;19;152058;-62
2022/03/17 02:35:49;;;;;;;;;;;;;;;20.01;45.38;102347.94;7275014;19;154209;-62
2022/03/17 02:38:16;;;;;;;;;;;;;;;19.98;45.43;102340.91;7282898;19;152159;-61
2022/03/17 02:40:44;;;;;;;;;;;;;;;19.97;45.12;102352.41;7277248;19;156592;-60
2022/03/17 02:43:14;;;;;;;;;;;;;;;19.95;45.42;102349.84;7275917;19;152310;-63
2022/03/17 02:45:42;;;;;;;;;;;;;;;19.94;45.41;102344.53;7274939;19;152611;-62
2022/03/17 02:48:10;;;;;;;;;;;;;;;19.92;45.79;102342.00;7275011;19;154598;-60
2022/03/17 02:50:37;;;;;;;;;;;;;;;19.92;45.65;102350.41;7275894;19;151930;-61
2022/03/17 02:53:06;;;;;;;;;;;;;;;19.90;45.63;102344.22;7273542;19;153491;-61
2022/03/17 02:55:34;;;;;;;;;;;;;;;19.89;45.70;102352.91;7275222;19;152703;-62
2022/03/17 02:58:03;;;;;;;;;;;;;;;19.85;45.93;102355.38;7276044;19;152116;-60
2022/03/17 03:00:30;;;;;;;;;;;;;;;19.84;45.63;102358.47;7282080;19;155179;-63
2022/03/17 03:02:57;;;;;;;;;;;;;;;19.83;45.79;102352.03;7275158;19;152084;-64
2022/03/17 03:05:26;;;;;;;;;;;;;;;19.83;45.59;102362.41;7283505;19;153625;-65
2022/03/17 03:07:54;;;;;;;;;;;;;;;19.79;45.71;102367.72;7282025;19;153718;-61
2022/03/17 03:10:22;;;;;;;;;;;;;;;19.79;45.54;102375.28;7282600;19;152614;-61
2022/03/17 03:12:49;;;;;;;;;;;;;;;19.75;45.72;102377.78;7280137;19;154923;-60
2022/03/17 03:15:15;;;;;;;;;;;;;;;19.77;45.60;102377.47;7280242;19;153278;-64
2022/03/17 03:17:42;;;;;;;;;;;;;;;19.76;45.50;102367.41;7283148;19;151885;-63
2022/03/17 03:20:10;;;;;;;;;;;;;;;19.73;45.69;102370.72;7281595;19;153157;-61
2022/03/17 03:22:39;;;;;;;;;;;;;;;19.71;45.86;102371.00;7287686;19;155693;-63
2022/03/17 03:25:08;;;;;;;;;;;;;;;19.69;45.65;102376.03;7280481;19;152151;-62
2022/03/17 03:27:37;;;;;;;;;;;;;;;19.68;45.91;102382.75;7279816;19;154332;-62
2022/03/17 03:30:05;;;;;;;;;;;;;;;19.68;45.52;102390.31;7282593;19;151922;-61
2022/03/17 03:32:31;;;;;;;;;;;;;;;19.67;45.77;102391.44;7282235;19;153358;-61
2022/03/17 03:37:22;;;;;;;;;;;;;;;19.67;45.74;102394.25;7281224;19;152523;-63
2022/03/17 03:37:45;;;;;;;;;;;;;;;19.64;45.91;102389.16;7280848;19;152052;-62
2022/03/17 03:40:12;;;;;;;;;;;;;;;19.62;46.05;102403.47;7282538;19;153455;-61
2022/03/17 03:42:39;;;;;;;;;;;;;;;19.58;45.90;102409.88;7276987;19;153345;-62
2022/03/17 03:45:06;;;;;;;;;;;;;;;19.58;45.88;102407.88;7290667;19;152033;-63
2022/03/17 03:47:33;;;;;;;;;;;;;;;19.55;46.07;102419.63;7280696;19;154098;-62
2022/03/17 03:50:01;;;;;;;;;;;;;;;19.54;46.22;102416.00;7280344;19;151867;-63
2022/03/17 03:52:28;;;;;;;;;;;;;;;19.53;46.39;102416.28;7279675;19;152026;-60
2022/03/17 03:54:55;;;;;;;;;;;;;;;19.53;46.18;102421.88;7277814;19;154423;-64
2022/03/17 03:57:22;;;;;;;;;;;;;;;19.53;46.00;102421.88;7282707;19;152005;-62
2022/03/17 03:59:49;;;;;;;;;;;;;;;19.49;46.22;102420.69;7279207;19;153321;-64
2022/03/17 04:02:16;;;;;;;;;;;;;;;19.47;46.23;102420.13;7281141;19;153463;-63
2022/03/17 04:04:43;;;;;;;;;;;;;;;19.47;45.87;102422.94;7286211;19;152029;-64
2022/03/17 04:07:11;;;;;;;;;;;;;;;19.45;46.23;102430.75;7278579;19;154141;-61
2022/03/17 04:09:40;;;;;;;;;;;;;;;19.45;45.79;102427.94;7278758;19;152563;-62
2022/03/17 04:12:08;;;;;;;;;;;;;;;19.42;46.17;102434.91;7280325;19;152764;-60
2022/03/17 04:14:35;;;;;;;;;;;;;;;19.41;45.83;102444.41;7278813;19;154746;-62
2022/03/17 04:17:04;;;;;;;;;;;;;;;19.39;45.94;102437.41;7280272;19;152101;-61
2022/03/17 04:19:31;;;;;;;;;;;;;;;19.38;46.22;102449.72;7278516;19;153297;-62
2022/03/17 04:21:58;;;;;;;;;;;;;;;19.36;46.12;102458.38;7282053;19;153309;-62
2022/03/17 04:24:26;;;;;;;;;;;;;;;19.34;46.30;102454.16;7281335;19;151582;-60
2022/03/17 04:26:53;;;;;;;;;;;;;;;19.33;46.04;102466.47;7287254;19;152801;-60
2022/03/17 04:29:19;;;;;;;;;;;;;;;19.35;46.12;102472.69;7280012;19;152713;-62
2022/03/17 04:31:47;;;;;;;;;;;;;;;19.33;45.90;102474.88;7280019;19;153244;-62
2022/03/17 04:34:13;;;;;;;;;;;;;;;19.30;46.22;102484.69;7275567;19;154547;-62
2022/03/17 04:36:40;;;;;;;;;;;;;;;19.29;46.11;102487.72;7279126;19;152952;-61
2022/03/17 04:39:11;;;;;;;;;;;;;;;19.29;46.16;102490.53;7280769;19;153276;-59
2022/03/17 04:41:39;;;;;;;;;;;;;;;19.26;46.61;102493.88;7277740;19;154192;-60
2022/03/17 04:44:07;;;;;;;;;;;;;;;19.26;46.33;102503.09;7282813;19;152025;-59
2022/03/17 04:46:34;;;;;;;;;;;;;;;19.25;46.38;102503.38;7279654;19;153397;-62
2022/03/17 04:49:02;;;;;;;;;;;;;;;19.25;46.36;102514.59;7286453;19;155141;-60
2022/03/17 04:51:29;;;;;;;;;;;;;;;19.21;46.49;102519.03;7280147;19;153586;-60
2022/03/17 04:53:56;;;;;;;;;;;;;;;19.19;46.40;102519.28;7275831;19;154123;-61
2022/03/17 04:56:23;;;;;;;;;;;;;;;19.18;46.53;102531.59;7279851;19;152463;-60
2022/03/17 04:58:49;;;;;;;;;;;;;;;19.17;46.70;102524.28;7279422;19;153288;-59
2022/03/17 05:01:18;;;;;;;;;;;;;;;19.17;46.63;102535.47;7277330;19;152341;-63
2022/03/17 05:03:45;;;;;;;;;;;;;;;19.18;46.85;102537.19;7279656;19;151921;-60
2022/03/17 05:06:14;;;;;;;;;;;;;;;19.18;47.02;102540.00;7278856;19;153917;-62
2022/03/17 05:08:41;;;;;;;;;;;;;;;19.15;46.97;102536.88;7279077;19;153722;-63
2022/03/17 05:11:09;;;;;;;;;;;;;;;19.17;47.11;102552.28;7283873;19;152226;-65
2022/03/17 05:13:37;;;;;;;;;;;;;;;19.20;46.82;102557.41;7276919;19;154081;-62
2022/03/17 05:16:04;;;;;;;;;;;;;;;19.23;47.16;102567.22;7278314;19;152227;-62
2022/03/17 05:18:32;;;;;;;;;;;;;;;19.27;47.43;102566.44;7279251;19;153565;-63
2022/03/17 05:20:59;;;;;;;;;;;;;;;19.30;47.35;102571.56;7278552;19;154067;-62
2022/03/17 05:23:26;;;;;;;;;;;;;;;19.37;47.45;102575.00;7278283;19;152530;-60
2022/03/17 05:25:53;;;;;;;;;;;;;;;19.43;47.75;102578.72;7279760;19;151952;-61
2022/03/17 05:28:20;;;;;;;;;;;;;;;19.51;48.00;102584.72;7276547;19;152417;-65
2022/03/17 05:30:47;;;;;;;;;;;;;;;19.59;47.65;102577.81;7278457;19;152278;-66
2022/03/17 05:33:14;;;;;;;;;;;;;;;19.66;47.76;102584.06;7283622;19;152411;-62
2022/03/17 05:35:42;;;;;;;;;;;;;;;19.73;48.15;102598.72;7280893;19;151887;-61
2022/03/17 05:38:09;;;;;;;;;;;;;;;19.81;47.75;102603.84;7280431;19;155830;-61
2022/03/17 05:40:36;;;;;;;;;;;;;;;19.89;47.67;102605.38;7277251;19;152249;-61
2022/03/17 05:43:06;;;;;;;;;;;;;;;19.99;47.68;102614.72;7280409;19;152147;-61
2022/03/17 05:45:34;;;;;;;;;;;;;;;20.09;47.32;102621.56;7278516;19;152516;-61
2022/03/17 05:48:02;;;;;;;;;;;;;;;20.16;47.15;102628.66;7276240;19;152046;-61
2022/03/17 05:50:30;;;;;;;;;;;;;;;20.25;46.76;102634.66;7280153;19;152157;-63
2022/03/17 05:52:57;;;;;;;;;;;;;;;20.33;46.61;102646.28;7277530;19;151902;-60
2022/03/17 05:55:25;;;;;;;;;;;;;;;20.40;46.13;102643.22;7285214;19;152209;-62
2022/03/17 05:57:52;;;;;;;;;;;;;;;20.47;46.45;102655.09;7277753;19;153725;-62
2022/03/17 06:00:23;;;;;;;;;;;;;;;20.54;46.20;102644.47;7275738;19;154119;-61
2022/03/17 06:02:50;;;;;;;;;;;;;;;20.62;45.54;102652.44;7278046;19;152199;-60
2022/03/17 06:05:18;;;;;;;;;;;;;;;20.68;45.50;102654.16;7277570;19;153814;-61
2022/03/17 06:07:46;;;;;;;;;;;;;;;20.75;45.43;102665.19;7276006;19;154066;-60
2022/03/17 06:10:14;;;;;;;;;;;;;;;20.80;45.14;102663.25;7278441;19;151898;-61
2022/03/17 06:12:41;;;;;;;;;;;;;;;20.86;44.98;102681.84;7276364;19;153439;-62
2022/03/17 06:15:08;;;;;;;;;;;;;;;20.91;44.50;102688.63;7284017;19;152550;-62
2022/03/17 06:17:36;;;;;;;;;;;;;;;20.99;44.29;102700.19;7276782;19;153349;-62
2022/03/17 06:20:04;;;;;;;;;;;;;;;21.04;44.60;102699.41;7276056;19;154340;-62
2022/03/17 06:22:31;;;;;;;;;;;;;;;21.09;44.27;102708.72;7278342;19;151962;-61
2022/03/17 06:24:58;;;;;;;;;;;;;;;21.15;43.85;102718.06;7277731;19;153603;-61
2022/03/17 06:27:26;;;;;;;;;;;;;;;21.17;43.66;102716.69;7275027;19;155363;-61
2022/03/17 06:29:53;;;;;;;;;;;;;;;21.23;43.80;102717.56;7279156;19;152674;-61
2022/03/17 06:32:19;;;;;;;;;;;;;;;21.30;43.71;102729.44;7277035;19;153388;-59
2022/03/17 06:34:46;;;;;;;;;;;;;;;21.34;43.46;102724.97;7275400;19;153466;-61
2022/03/17 06:37:13;;;;;;;;;;;;;;;21.39;43.64;102739.06;7286499;19;151556;-61
2022/03/17 06:39:40;;;;;;;;;;;;;;;21.44;43.47;102744.69;7274905;19;153445;-61
2022/03/17 06:42:07;;;;;;;;;;;;;;;21.49;43.98;102744.75;7277280;19;152647;-63
2022/03/17 06:44:34;;;;;;;;;;;;;;;21.53;43.77;102745.88;7275912;19;153924;-61
2022/03/17 06:47:01;;;;;;;;;;;;;;;21.58;43.67;102751.53;7277742;19;153544;-61
2022/03/17 06:49:27;;;;;;;;;;;;;;;21.62;43.71;102749.06;7278636;19;152923;-60
2022/03/17 06:52:00;;;;;;;;;;;;;;;21.66;43.77;102751.06;7276135;19;152493;-60
2022/03/17 06:54:41;;;;;;;;;;;;;;;21.71;43.82;102755.88;7274635;19;154499;-62
2022/03/17 06:57:08;;;;;;;;;;;;;;;21.74;43.70;102758.13;7277936;19;151947;-60
2022/03/17 06:59:35;;;;;;;;;;;;;;;21.78;43.21;102758.41;7281967;19;152562;-60
2022/03/17 07:02:02;;;;;;;;;;;;;;;21.81;43.41;102763.50;7275442;19;151821;-61
2022/03/17 07:04:30;;;;;;;;;;;;;;;21.85;43.31;102775.94;7275160;19;153525;-62
2022/03/17 07:06:56;;;;;;;;;;;;;;;21.89;43.44;102772.28;7274126;19;152773;-61
2022/03/17 07:09:23;;;;;;;;;;;;;;;21.92;42.96;102774.53;7274928;19;151647;-61
2022/03/17 07:11:50;;;;;;;;;;;;;;;21.96;43.20;102786.13;7276624;19;152815;-62
2022/03/17 07:14:17;;;;;;;;;;;;;;;21.99;43.45;102788.38;7272629;19;153120;-62
2022/03/17 07:16:44;;;;;;;;;;;;;;;22.03;43.01;102795.19;7277504;19;151576;-61
2022/03/17 07:19:11;;;;;;;;;;;;;;;22.07;43.09;102788.75;7277857;19;152153;-63
2022/03/17 07:21:37;;;;;;;;;;;;;;;22.10;42.86;102795.78;7283795;19;153627;-62
2022/03/17 07:24:05;;;;;;;;;;;;;;;22.11;43.12;102787.06;7278125;19;153974;-63
2022/03/17 07:26:32;;;;;;;;;;;;;;;22.13;42.84;102784.81;7273377;19;154153;-64
2022/03/17 07:28:59;;;;;;;;;;;;;;;22.18;42.45;102793.28;7275877;19;152354;-61
2022/03/17 07:31:26;;;;;;;;;;;;;;;22.18;42.60;102795.25;7275005;19;153427;-63
2022/03/17 07:33:53;;;;;;;;;;;;;;;22.17;41.95;102793.53;7274671;19;154109;-62
2022/03/17 07:36:20;;;;;;;;;;;;;;;22.15;41.79;102796.66;7275210;19;152166;-66
2022/03/17 07:38:49;;;;;;;;;;;;;;;21.84;35.11;102800.41;7275864;19;152907;-62
2022/03/17 07:41:16;;;;;;;;;;;;;;;21.14;35.14;102801.56;7273634;19;154225;-63
2022/03/17 07:43:43;;;;;;;;;;;;;;;21.36;35.05;102804.25;7284338;19;152759;-62
2022/03/17 07:46:13;;;;;;;;;;;;;;;21.50;35.57;102801.84;7273206;19;152912;-64
2022/03/17 07:48:41;;;;;;;;;;;;;;;21.51;36.20;102812.84;7275215;19;151637;-62
2022/03/17 07:51:09;;;;;;;;;;;;;;;21.51;36.80;102818.44;7280218;19;153977;-67
2022/03/17 07:53:37;;;;;;;;;;;;;;;21.50;36.69;102828.00;7281018;19;154770;-65
2022/03/17 07:56:04;;;;;;;;;;;;;;;21.48;37.00;102835.03;7280985;19;152480;-64
2022/03/17 07:58:32;;;;;;;;;;;;;;;21.44;37.18;102840.31;7280266;19;154678;-66
2022/03/17 08:01:00;;;;;;;;;;;;;;;21.41;37.29;102840.88;7279816;19;154024;-65
2022/03/17 08:03:27;;;;;;;;;;;;;;;21.37;37.45;102845.34;7288286;19;152121;-66
2022/03/17 08:05:54;;;;;;;;;;;;;;;21.34;38.12;102848.69;7280386;19;154398;-64
2022/03/17 08:08:21;;;;;;;;;;;;;;;21.32;37.71;102859.34;7282697;19;152021;-61
2022/03/17 08:10:48;;;;;;;;;;;;;;;21.30;37.73;102859.59;7279493;19;151999;-63
2022/03/17 08:13:15;;;;;;;;;;;;;;;21.30;38.04;102864.41;7277564;19;152565;-63
2022/03/17 08:15:43;;;;;;;;;;;;;;;21.27;37.74;102864.91;7278956;19;152311;-61
2022/03/17 08:18:10;;;;;;;;;;;;;;;21.20;38.56;102864.31;7280900;19;153307;-61
2022/03/17 08:20:38;;;;;;;;;;;;;;;21.18;37.85;102869.31;7279009;19;154142;-63
2022/03/17 08:23:06;;;;;;;;;;;;;;;21.14;37.80;102873.78;7280940;19;152094;-62
2022/03/17 08:25:33;;;;;;;;;;;;;;;21.11;37.67;102874.28;7286641;19;155172;-61
2022/03/17 08:28:02;;;;;;;;;;;;;;;21.08;37.83;102883.25;7279434;19;152209;-61
2022/03/17 08:30:30;;;;;;;;;;;;;;;21.06;38.00;102877.06;7282032;19;152664;-65
2022/03/17 08:32:57;;;;;;;;;;;;;;;21.02;37.99;102889.94;7281714;19;152971;-63
2022/03/17 08:35:25;;;;;;;;;;;;;;;20.99;38.44;102882.03;7278868;19;152284;-64
2022/03/17 08:37:51;;;;;;;;;;;;;;;20.96;37.99;102882.56;7279067;19;152560;-62
2022/03/17 08:40:18;;;;;;;;;;;;;;;20.92;38.36;102881.38;7277243;19;154172;-61
2022/03/17 08:42:45;;;;;;;;;;;;;;;20.98;38.78;102885.97;7282235;19;151900;-67
2022/03/17 08:49:18;;;;;;;;;;;;;;;20.90;38.26;102884.44;7280341;19;153192;-65
2022/03/17 08:50:45;;;;;;;;;;;;;;;20.86;38.35;102889.75;7282331;19;152185;-63
2022/03/17 08:53:12;;;;;;;;;;;;;;;20.84;38.36;102891.16;7279787;19;155110;-63
2022/03/17 08:55:39;;;;;;;;;;;;;;;20.85;38.75;102890.00;7277708;19;152234;-66
2022/03/17 08:58:07;;;;;;;;;;;;;;;20.80;38.37;102892.78;7278842;19;153662;-64
2022/03/17 09:00:35;;;;;;;;;;;;;;;20.75;38.54;102899.19;7277862;19;152079;-65
2022/03/17 09:03:06;;;;;;;;;;;;;;;20.73;38.63;102895.78;7279477;19;151798;-63
2022/03/17 09:05:35;;;;;;;;;;;;;;;20.71;38.93;102898.03;7278928;19;152047;-67
2022/03/17 09:08:05;;;;;;;;;;;;;;;20.71;38.89;102908.41;7278328;19;153899;-66
2022/03/17 09:10:34;;;;;;;;;;;;;;;20.67;38.61;102908.06;7284293;19;152274;-64
2022/03/17 09:13:07;;;;;;;;;;;;;;;20.67;38.66;102902.44;7279905;19;155302;-63
2022/03/17 09:15:37;;;;;;;;;;;;;;;20.68;38.95;102914.53;7275828;19;151636;-62
2022/03/17 09:18:07;;;;;;;;;;;;;;;20.66;38.98;102920.44;7279053;19;153622;-67
2022/03/17 09:20:35;;;;;;;;;;;;;;;20.64;38.97;102918.97;7277631;19;154377;-65
2022/03/17 09:23:02;;;;;;;;;;;;;;;20.62;38.54;102924.03;7278245;19;151997;-65
2022/03/17 09:25:30;;;;;;;;;;;;;;;20.60;38.71;102923.41;7278961;19;153654;-68
2022/03/17 09:27:57;;;;;;;;;;;;;;;20.59;38.99;102924.53;7277136;19;154052;-66
2022/03/17 09:30:24;;;;;;;;;;;;;;;20.56;38.71;102927.88;7278465;19;152059;-65
2022/03/17 09:32:52;;;;;;;;;;;;;;;20.55;38.66;102931.78;7285108;19;151956;-64
2022/03/17 09:35:19;;;;;;;;;;;;;;;20.54;38.70;102933.72;7275006;19;151980;-70
2022/03/17 09:37:46;;;;;;;;;;;;;;;20.52;38.87;102933.16;7278307;19;155306;-66
2022/03/17 09:40:13;;;;;;;;;;;;;;;20.51;38.98;102941.84;7275849;19;154837;-62
2022/03/17 09:42:41;;;;;;;;;;;;;;;20.49;39.08;102944.06;7276886;19;152048;-64
2022/03/17 09:45:09;;;;;;;;;;;;;;;20.46;38.92;102934.19;7277553;19;152035;-65
2022/03/17 09:47:38;;;;;;;;;;;;;;;20.44;38.76;102939.22;7276254;19;154277;-63
2022/03/17 09:50:07;;;;;;;;;;;;;;;20.48;38.97;102939.56;7278457;19;152007;-67
2022/03/17 09:52:35;;;;;;;;;;;;;;;20.40;38.92;102932.41;7277097;19;152793;-64
2022/03/17 09:55:03;;;;;;;;;;;;;;;20.39;38.97;102940.00;7283403;19;152962;-66
2022/03/17 09:57:32;;;;;;;;;;;;;;;20.37;38.88;102938.56;7277143;19;155045;-63
2022/03/17 10:00:00;;;;;;;;;;;;;;;20.35;39.05;102941.59;7279463;19;156051;-65
2022/03/17 10:02:27;;;;;;;;;;;;;;;20.32;39.01;102936.53;7279287;19;152247;-61
2022/03/17 10:04:54;;;;;;;;;;;;;;;20.31;39.44;102936.78;7277485;19;152345;-63
2022/03/17 10:07:21;;;;;;;;;;;;;;;20.31;39.04;102943.25;7276580;19;154004;-64
2022/03/17 10:09:49;;;;;;;;;;;;;;;20.30;39.03;102938.75;7275471;19;151845;-65
2022/03/17 10:12:20;;;;;;;;;;;;;;;20.31;39.33;102953.63;7276155;19;152739;-63
2022/03/17 10:14:48;;;;;;;;;;;;;;;20.32;39.09;102946.91;7283688;19;154057;-64
2022/03/17 10:17:24;;;;;;;;;;;;;;;20.31;39.09;102959.22;7278324;19;152945;-63
2022/03/17 10:19:51;;;;;;;;;;;;;;;20.33;39.05;102951.41;7276887;19;156399;-61
2022/03/17 10:22:18;;;;;;;;;;;;;;;20.30;39.02;102954.75;7277536;19;152509;-67
2022/03/17 10:24:52;;;;;;;;;;;;;;;20.26;39.31;102945.13;7277730;19;153904;-66
2022/03/17 10:27:41;;;;;;;;;;;;;;;20.33;39.17;102952.25;7277083;19;154014;-67
2022/03/17 10:30:08;;;;;;;;;;;;;;;20.24;39.19;102959.41;7277369;19;151608;-68
2022/03/17 10:32:36;;;;;;;;;;;;;;;20.23;39.25;102956.84;7279106;19;153506;-64
2022/03/17 10:35:03;;;;;;;;;;;;;;;20.20;39.31;102961.03;7275182;19;154754;-64
2022/03/17 10:37:34;;;;;;;;;;;;;;;20.20;39.14;102951.75;7286640;19;151976;-66
2022/03/17 10:40:07;;;;;;;;;;;;;;;20.22;39.35;102955.97;7278203;19;156324;-61
2022/03/17 10:42:34;;;;;;;;;;;;;;;20.20;39.32;102957.34;7277548;19;151927;-64
2022/03/17 10:45:05;;;;;;;;;;;;;;;20.19;39.06;102964.06;7279445;19;153387;-67
2022/03/17 10:47:36;;;;;;;;;;;;;;;20.18;39.20;102968.84;7274858;19;152462;-65
2022/03/17 10:50:08;;;;;;;;;;;;;;;20.19;39.32;102972.50;7276704;19;152097;-63
2022/03/17 10:52:43;;;;;;;;;;;;;;;20.21;39.02;102975.91;7277392;19;152515;-66
2022/03/17 10:55:11;;;;;;;;;;;;;;;20.26;38.89;102981.59;7274687;19;155002;-63
2022/03/17 10:57:39;;;;;;;;;;;;;;;20.26;38.74;102974.00;7277124;19;152299;-66
2022/03/17 11:00:09;;;;;;;;;;;;;;;20.17;39.17;102969.09;7282603;19;151923;-64
2022/03/17 11:02:37;;;;;;;;;;;;;;;20.16;38.95;102962.66;7276772;19;151928;-62
2022/03/17 11:05:06;;;;;;;;;;;;;;;20.15;39.21;102960.94;7275368;19;152727;-64
2022/03/17 11:07:33;;;;;;;;;;;;;;;20.13;39.12;102963.13;7274218;19;156794;-63
2022/03/17 11:10:05;;;;;;;;;;;;;;;20.19;38.76;102950.03;7277146;19;152498;-67
2022/03/17 11:12:34;;;;;;;;;;;;;;;20.18;38.77;102963.22;7273655;19;151970;-63
2022/03/17 11:15:01;;;;;;;;;;;;;;;20.18;39.11;102973.59;7254562;19;154193;-64
2022/03/17 11:17:31;;;;;;;;;;;;;;;20.18;39.03;102970.78;7266358;19;156297;-63
2022/03/17 11:20:02;;;;;;;;;;;;;;;20.18;38.72;102963.22;7273603;19;153273;-64
2022/03/17 11:22:32;;;;;;;;;;;;;;;20.22;38.48;102969.16;7280829;19;153060;-65
2022/03/17 11:25:19;;;;;;;;;;;;;;;20.24;38.53;102962.19;7277952;19;153076;-63
2022/03/17 11:27:47;;;;;;;;;;;;;;;20.32;38.94;102975.81;7279281;19;154552;-62
2022/03/17 11:30:14;;;;;;;;;;;;;;;20.38;38.72;102969.19;7275350;19;152068;-63
2022/03/17 11:35:32;;;;;;;;;;;;;;;20.54;38.57;102970.25;7278667;19;153540;-61
2022/03/17 11:38:22;;;;;;;;;;;;;;;20.62;38.86;102966.16;7282976;19;151861;-63
2022/03/17 11:40:59;;;;;;;;;;;;;;;20.72;38.57;102961.50;7282974;19;153594;-64
2022/03/17 11:43:41;;;;;;;;;;;;;;;20.82;38.56;102969.22;7280179;19;153985;-62
2022/03/17 11:46:09;;;;;;;;;;;;;;;20.90;38.25;102967.91;7287930;19;152112;-63
2022/03/17 11:48:36;;;;;;;;;;;;;;;21.01;38.22;102973.41;7280012;19;154266;-62
2022/03/17 11:51:04;;;;;;;;;;;;;;;21.10;37.92;102979.41;7282682;19;151514;-64
2022/03/17 11:53:37;;;;;;;;;;;;;;;21.19;37.99;102981.53;7283870;19;153872;-62
2022/03/17 11:56:05;;;;;;;;;;;;;;;21.30;37.54;102985.31;7277950;19;153375;-64
2022/03/17 11:58:42;;;;;;;;;;;;;;;21.40;37.33;102987.34;7280432;19;152039;-63
2022/03/17 12:01:11;;;;;;;;;;;;;;;21.49;37.16;102980.13;7282273;19;154133;-65
2022/03/17 12:03:41;;;;;;;;;;;;;;;21.57;36.94;102982.50;7279465;19;154655;-63
2022/03/17 12:06:10;;;;;;;;;;;;;;;21.65;36.93;102977.22;7280240;19;152005;-67
2022/03/17 12:08:37;;;;;;;;;;;;;;;21.74;37.30;102975.63;7286872;19;153395;-65
2022/03/17 12:11:13;;;;;;;;;;;;;;;21.84;37.13;102988.09;7280045;19;151949;-63
2022/03/17 12:13:41;;;;;;;;;;;;;;;21.90;36.50;103001.06;7282601;19;156142;-65
2022/03/17 12:16:11;;;;;;;;;;;;;;;21.97;36.76;102993.31;7276710;19;155553;-65
2022/03/17 12:18:48;;;;;;;;;;;;;;;21.97;37.50;102990.50;7276751;19;157010;-63
2022/03/17 12:21:15;;;;;;;;;;;;;;;21.95;37.14;102987.94;7280172;19;153952;-62
2022/03/17 12:23:44;;;;;;;;;;;;;;;22.03;36.91;103000.69;7276853;19;153615;-65
2022/03/17 12:26:11;;;;;;;;;;;;;;;22.09;37.26;102999.59;7279750;19;152593;-62
2022/03/17 12:28:42;;;;;;;;;;;;;;;22.09;37.10;102996.78;7285663;19;155066;-64
2022/03/17 12:31:09;;;;;;;;;;;;;;;22.12;36.85;102999.91;7280620;19;152485;-61
2022/03/17 12:33:39;;;;;;;;;;;;;;;22.08;36.60;103004.38;7279710;19;152594;-62
2022/03/17 12:36:06;;;;;;;;;;;;;;;22.08;36.83;103000.69;7273945;19;154111;-62
2022/03/17 12:38:34;;;;;;;;;;;;;;;22.05;36.62;103012.50;7279507;19;152056;-62
2022/03/17 12:41:02;;;;;;;;;;;;;;;22.02;35.97;103008.28;7280985;19;152396;-62
2022/03/17 12:43:33;;;;;;;;;;;;;;;22.04;36.10;103005.19;7277487;19;154777;-59
2022/03/17 12:46:01;;;;;;;;;;;;;;;22.01;36.13;103005.72;7280189;19;152238;-61